Time;durP1;ratioP1;P1;durP2;ratioP2;P2;SDS_P1;SDS_P2;PMS_P1;PMS_P2;Temp;Humidity;BMP_temperature;BMP_pressure;BME280_temperature;BME280_humidity;BME280_pressure;Samples;Min_cycle;Max_cycle;Signal;HPM_P1;HPM_P2
2022/09/03 00:00:19;;;;;;;1.40;1.20;;;10.50;99.90;;;;;;4995030;28;20190;-86
2022/09/03 00:02:44;;;;;;;1.33;1.23;;;10.60;99.90;;;;;;5013966;28;20180;-85
2022/09/03 00:05:33;;;;;;;3.53;1.73;;;10.80;99.90;;;;;;4996418;28;20693;-85
2022/09/03 00:08:50;;;;;;;3.22;2.22;;;12.60;99.90;;;;;;4996212;28;20192;-86
2022/09/03 00:11:24;;;;;;;2.65;1.63;;;10.70;99.90;;;;;;4974366;28;20189;-86
2022/09/03 00:14:08;;;;;;;1.95;1.63;;;10.70;99.90;;;;;;5014056;28;20267;-86
2022/09/03 00:16:56;;;;;;;1.08;1.00;;;11.10;99.90;;;;;;5013387;28;20188;-86
2022/09/03 00:19:26;;;;;;;1.95;1.52;;;10.80;99.90;;;;;;5006353;28;20189;-86
2022/09/03 00:21:59;;;;;;;1.30;1.20;;;12.10;99.90;;;;;;5013383;28;20276;-86
2022/09/03 00:24:29;;;;;;;1.63;1.52;;;10.70;99.90;;;;;;5013325;28;20180;-87
2022/09/03 00:27:00;;;;;;;2.80;1.50;;;10.60;99.90;;;;;;5013543;28;20204;-86
2022/09/03 00:29:32;;;;;;;2.95;2.00;;;;;;;;;;4995463;28;20573;-87
2022/09/03 00:32:03;;;;;;;1.90;1.60;;;10.60;99.90;;;;;;4995591;28;20204;-86
2022/09/03 00:34:34;;;;;;;1.33;1.20;;;10.80;99.90;;;;;;5013092;28;20211;-87
2022/09/03 00:37:00;;;;;;;2.28;1.70;;;12.90;99.90;;;;;;4996088;28;20703;-87
2022/09/03 00:39:27;;;;;;;1.00;1.00;;;10.80;99.90;;;;;;4995722;28;20177;-87
2022/09/03 00:42:38;;;;;;;1.73;1.63;;;10.50;99.90;;;;;;4995727;28;20188;-87
2022/09/03 00:45:24;;;;;;;1.47;1.07;;;10.50;99.90;;;;;;5013286;28;20207;-86
2022/09/03 00:48:25;;;;;;;2.13;1.83;;;10.50;99.90;;;;;;5013298;28;20649;-86
2022/09/03 00:51:10;;;;;;;1.83;1.67;;;10.60;99.90;;;;;;4995663;28;20595;-86
2022/09/03 00:53:51;;;;;;;1.57;1.47;;;10.80;99.90;;;;;;5025423;28;20645;-86
2022/09/03 00:56:39;;;;;;;1.70;1.60;;;10.30;99.90;;;;;;5032666;28;20176;-87
2022/09/03 00:59:14;;;;;;;0.50;0.50;;;10.20;99.90;;;;;;5032672;28;20175;-86
2022/09/03 01:01:54;;;;;;;1.70;1.17;;;10.40;99.90;;;;;;5014672;28;20191;-88
2022/09/03 01:04:38;;;;;;;2.20;1.40;;;10.30;99.90;;;;;;5032580;28;20188;-87
2022/09/03 01:07:37;;;;;;;1.43;1.03;;;10.30;99.90;;;;;;5014871;28;20212;-86
2022/09/03 01:10:12;;;;;;;3.53;1.67;;;10.30;99.90;;;;;;5016033;28;20219;-86
2022/09/03 01:13:12;;;;;;;1.77;1.63;;;10.70;99.90;;;;;;5018619;28;20192;-87
2022/09/03 01:16:07;;;;;;;1.77;1.30;;;10.20;99.90;;;;;;5025355;28;20200;-87
2022/09/03 01:18:56;;;;;;;2.65;1.98;;;10.50;99.90;;;;;;5036280;28;20169;-87
2022/09/03 01:21:41;;;;;;;2.93;2.20;;;10.00;99.90;;;;;;5018491;28;20172;-87
2022/09/03 01:24:38;;;;;;;1.60;1.33;;;10.20;99.90;;;;;;5018662;28;20242;-86
2022/09/03 01:27:14;;;;;;;6.93;0.90;;;10.50;99.90;;;;;;5036483;28;20201;-86
2022/09/03 01:29:42;;;;;;;1.77;1.30;;;;;;;;;;5036067;28;20680;-86
2022/09/03 01:32:12;;;;;;;1.03;0.87;;;10.50;99.90;;;;;;5018403;28;20563;-87
2022/09/03 01:34:38;;;;;;;1.07;0.93;;;10.00;99.90;;;;;;5018479;28;20215;-87
2022/09/03 01:37:32;;;;;;;3.60;1.40;;;10.20;99.90;;;;;;5036343;28;20185;-86
2022/09/03 01:40:21;;;;;;;1.20;1.20;;;10.50;99.90;;;;;;5018692;28;20212;-87
2022/09/03 01:43:11;;;;;;;0.77;0.77;;;10.30;99.90;;;;;;5035842;28;20243;-86
2022/09/03 01:46:01;;;;;;;0.93;0.93;;;10.30;99.90;;;;;;5017899;28;20208;-87
2022/09/03 01:48:41;;;;;;;0.70;0.70;;;10.50;99.90;;;;;;5018197;28;20263;-86
2022/09/03 01:51:20;;;;;;;2.27;1.23;;;10.50;99.90;;;;;;5018133;28;20204;-86
2022/09/03 01:54:07;;;;;;;1.33;0.70;;;10.40;99.90;;;;;;5035822;28;20179;-86
2022/09/03 01:56:44;;;;;;;4.75;1.42;;;10.10;99.90;;;;;;5035475;28;20672;-86
2022/09/03 01:59:33;;;;;;;0.97;0.93;;;10.10;99.90;;;;;;5035829;28;20172;-87
2022/09/03 02:02:06;;;;;;;1.83;1.60;;;10.10;99.90;;;;;;5036354;28;20169;-87
2022/09/03 02:04:32;;;;;;;1.10;1.00;;;10.40;99.90;;;;;;5035371;28;20200;-85
2022/09/03 02:07:00;;;;;;;2.07;0.80;;;12.60;99.90;;;;;;5035676;28;20211;-86
2022/09/03 02:09:26;;;;;;;0.70;0.70;;;10.40;99.90;;;;;;5017676;28;20243;-85
2022/09/03 02:12:09;;;;;;;1.50;1.03;;;10.20;99.90;;;;;;5018372;28;20536;-85
2022/09/03 02:14:35;;;;;;;2.63;1.10;;;10.00;99.90;;;;;;5025803;28;20192;-86
2022/09/03 02:17:04;;;;;;;2.23;1.40;;;12.70;99.90;;;;;;5026780;28;20580;-86
2022/09/03 02:19:30;;;;;;;1.33;1.23;;;9.60;99.90;;;;;;5025156;28;20183;-86
2022/09/03 02:21:57;;;;;;;0.73;0.73;;;12.70;99.90;;;;;;5010798;28;20177;-87
2022/09/03 02:24:27;;;;;;;2.43;1.17;;;9.70;99.90;;;;;;5034122;28;20180;-86
2022/09/03 02:26:53;;;;;;;0.70;0.70;;;10.10;99.90;;;;;;5038803;28;20298;-86
2022/09/03 02:29:20;;;;;;;1.63;1.40;;;10.10;99.90;;;;;;5055910;28;20236;-86
2022/09/03 02:31:45;;;;;;;1.57;1.37;;;9.90;99.90;;;;;;5036357;28;20252;-86
2022/09/03 02:34:11;;;;;;;2.17;1.27;;;9.50;99.90;;;;;;5033799;28;20192;-86
2022/09/03 02:36:41;;;;;;;2.33;1.10;;;9.70;99.90;;;;;;5039645;28;20192;-87
2022/09/03 02:39:07;;;;;;;1.10;1.00;;;9.60;99.90;;;;;;5035303;28;20157;-87
2022/09/03 02:41:33;;;;;;;0.90;0.90;;;;;;;;;;5017004;28;20181;-86
2022/09/03 02:44:16;;;;;;;1.93;1.57;;;9.60;99.90;;;;;;5035404;28;20184;-86
2022/09/03 02:47:01;;;;;;;1.17;0.93;;;9.70;99.90;;;;;;5034608;28;20318;-86
2022/09/03 02:49:27;;;;;;;1.00;0.80;;;10.00;99.90;;;;;;5017021;28;20695;-86
2022/09/03 02:51:59;;;;;;;1.97;1.83;;;9.50;99.90;;;;;;5016998;28;20185;-86
2022/09/03 02:54:27;;;;;;;1.93;1.27;;;9.50;99.90;;;;;;5016937;28;20703;-87
2022/09/03 02:56:53;;;;;;;2.23;0.73;;;;;;;;;;5016654;28;20192;-86
2022/09/03 02:59:18;;;;;;;2.67;1.40;;;9.70;99.90;;;;;;5034801;28;20188;-85
2022/09/03 03:01:44;;;;;;;1.53;1.17;;;;;;;;;;5034365;28;20173;-87
2022/09/03 03:04:10;;;;;;;1.47;1.10;;;;;;;;;;5034390;28;20226;-87
2022/09/03 03:06:36;;;;;;;1.17;1.07;;;;;;;;;;5000219;28;20220;-86
2022/09/03 03:09:04;;;;;;;1.43;1.13;;;;;;;;;;5000602;28;20630;-86
2022/09/03 03:11:31;;;;;;;0.80;0.80;;;;;;;;;;5001055;28;20625;-86
2022/09/03 03:13:56;;;;;;;0.73;0.73;;;9.40;99.90;;;;;;5016552;28;20664;-87
2022/09/03 03:16:22;;;;;;;1.73;1.13;;;;;;;;;;5034162;28;20185;-86
2022/09/03 03:18:49;;;;;;;1.80;1.10;;;;;;;;;;5033934;28;20630;-87
2022/09/03 03:21:16;;;;;;;1.83;1.30;;;9.30;99.90;;;;;;5034348;28;20259;-87
2022/09/03 03:23:43;;;;;;;1.33;1.23;;;9.40;99.90;;;;;;5016312;28;20187;-87
2022/09/03 03:26:14;;;;;;;1.10;1.10;;;9.20;99.90;;;;;;5034386;28;20212;-87
2022/09/03 03:28:41;;;;;;;2.20;1.20;;;;;;;;;;5034297;28;20165;-87
2022/09/03 03:31:16;;;;;;;2.10;1.70;;;9.00;99.90;;;;;;5016744;28;20298;-87
2022/09/03 03:33:41;;;;;;;0.70;0.70;;;9.20;99.90;;;;;;5052830;28;20192;-86
2022/09/03 03:36:10;;;;;;;1.80;1.63;;;9.40;99.90;;;;;;5058011;28;20192;-85
2022/09/03 03:38:36;;;;;;;1.10;1.00;;;9.00;99.90;;;;;;5047020;28;20188;-86
2022/09/03 03:41:16;;;;;;;0.97;0.90;;;9.20;99.90;;;;;;5016021;28;20234;-86
2022/09/03 03:43:42;;;;;;;2.70;1.53;;;;;;;;;;5016320;28;20168;-85
2022/09/03 03:46:09;;;;;;;3.43;1.67;;;8.80;99.90;;;;;;5033802;28;20216;-86
2022/09/03 03:48:36;;;;;;;1.30;1.20;;;8.80;99.90;;;;;;5016146;28;20563;-86
2022/09/03 03:51:05;;;;;;;2.20;1.30;;;9.40;99.90;;;;;;5015843;28;20195;-85
2022/09/03 03:53:32;;;;;;;0.43;0.43;;;9.00;99.90;;;;;;5033131;28;20187;-86
2022/09/03 03:56:00;;;;;;;1.30;1.20;;;8.90;99.90;;;;;;5017266;28;20197;-86
2022/09/03 03:58:31;;;;;;;1.00;1.00;;;8.60;99.90;;;;;;5000008;28;20188;-86
2022/09/03 04:01:04;;;;;;;0.90;0.90;;;8.90;99.90;;;;;;5012267;28;20173;-86
2022/09/03 04:03:30;;;;;;;2.60;1.07;;;8.80;99.90;;;;;;5010028;28;21087;-86
2022/09/03 04:05:58;;;;;;;1.80;1.37;;;8.90;99.90;;;;;;5011772;28;20304;-85
2022/09/03 04:08:24;;;;;;;1.00;0.87;;;;;;;;;;4995061;28;20268;-86
2022/09/03 04:10:50;;;;;;;0.60;0.60;;;9.10;99.90;;;;;;5012000;28;20181;-88
2022/09/03 04:13:16;;;;;;;1.27;1.17;;;;;;;;;;5012062;28;20182;-87
2022/09/03 04:15:42;;;;;;;1.07;0.97;;;;;;;;;;5011828;28;20193;-88
2022/09/03 04:18:08;;;;;;;1.97;1.63;;;;;;;;;;5013523;28;20699;-87
2022/09/03 04:20:37;;;;;;;1.37;0.93;;;8.80;99.90;;;;;;5010786;28;20185;-86
2022/09/03 04:23:04;;;;;;;1.77;0.90;;;9.00;99.90;;;;;;5011507;28;20204;-86
2022/09/03 04:25:31;;;;;;;1.73;1.60;;;;;;;;;;5011829;28;20287;-87
2022/09/03 04:27:56;;;;;;;1.20;1.13;;;9.10;99.90;;;;;;4995916;28;20261;-86
2022/09/03 04:30:23;;;;;;;0.77;0.77;;;;;;;;;;4994036;28;20264;-86
2022/09/03 04:32:53;;;;;;;1.17;0.90;;;9.10;99.90;;;;;;5014996;28;20238;-86
2022/09/03 04:35:19;;;;;;;1.13;1.03;;;9.10;99.90;;;;;;4995749;28;20193;-85
2022/09/03 04:37:46;;;;;;;3.03;1.37;;;;;;;;;;4992492;28;20187;-86
2022/09/03 04:40:12;;;;;;;0.87;0.83;;;;;;;;;;5011825;28;20184;-85
2022/09/03 04:42:38;;;;;;;0.80;0.60;;;;;;;;;;4994567;28;20181;-86
2022/09/03 04:45:05;;;;;;;1.53;1.43;;;9.30;99.90;;;;;;5012210;28;20185;-86
2022/09/03 04:47:31;;;;;;;0.70;0.70;;;;;;;;;;4998635;28;20188;-85
2022/09/03 04:49:56;;;;;;;1.83;1.07;;;9.70;99.90;;;;;;4997047;28;20207;-85
2022/09/03 04:52:23;;;;;;;0.77;0.77;;;;;;;;;;5015629;28;20181;-85
2022/09/03 04:54:49;;;;;;;1.40;1.30;;;;;;;;;;5015852;28;20529;-85
2022/09/03 04:57:15;;;;;;;1.03;0.73;;;;;;;;;;4979773;28;20223;-85
2022/09/03 04:59:41;;;;;;;0.97;0.93;;;9.80;99.90;;;;;;5015811;28;20184;-85
2022/09/03 05:02:08;;;;;;;1.20;1.10;;;10.20;99.90;;;;;;5016145;28;20189;-84
2022/09/03 05:04:34;;;;;;;1.00;1.00;;;;;;;;;;5017006;28;20177;-80
2022/09/03 05:07:00;;;;;;;1.20;1.10;;;9.80;99.90;;;;;;5016360;28;20288;-81
2022/09/03 05:09:26;;;;;;;0.87;0.87;;;;;;;;;;5016984;28;20773;-82
2022/09/03 05:11:52;;;;;;;1.77;1.67;;;10.10;99.90;;;;;;4998200;28;20181;-84
2022/09/03 05:14:18;;;;;;;1.20;1.10;;;;;;;;;;5016387;28;20676;-85
2022/09/03 05:16:43;;;;;;;1.40;1.20;;;10.60;99.90;;;;;;5016317;28;20243;-84
2022/09/03 05:19:09;;;;;;;0.90;0.73;;;;;;;;;;4998860;28;20276;-83
2022/09/03 05:21:35;;;;;;;0.80;0.80;;;10.20;99.90;;;;;;4998540;28;20232;-84
2022/09/03 05:24:02;;;;;;;1.23;1.13;;;10.60;99.90;;;;;;5015394;28;20661;-86
2022/09/03 05:26:35;;;;;;;1.47;1.10;;;11.00;99.90;;;;;;5016549;28;20348;-83
2022/09/03 05:29:06;;;;;;;1.37;1.10;;;10.60;99.90;;;;;;5015632;28;20177;-81
2022/09/03 05:31:32;;;;;;;1.03;0.97;;;10.70;99.90;;;;;;5016014;28;20319;-82
2022/09/03 05:34:00;;;;;;;2.43;1.37;;;10.70;99.90;;;;;;5015804;28;20209;-85
2022/09/03 05:36:31;;;;;;;0.70;0.70;;;11.10;99.90;;;;;;4998321;28;20196;-85
2022/09/03 05:38:58;;;;;;;1.73;1.20;;;11.40;99.90;;;;;;5001032;28;20235;-84
2022/09/03 05:41:25;;;;;;;1.33;1.27;;;10.90;99.90;;;;;;5026184;28;20217;-83
2022/09/03 05:43:57;;;;;;;1.70;1.23;;;10.90;99.90;;;;;;5006492;28;20182;-84
2022/09/03 05:46:30;;;;;;;1.33;1.15;;;11.30;99.90;;;;;;5034218;28;20299;-83
2022/09/03 05:48:57;;;;;;;1.45;1.38;;;11.30;99.90;;;;;;5026367;28;20181;-83
2022/09/03 05:51:23;;;;;;;1.50;1.40;;;;;;;;;;5019775;28;20197;-84
2022/09/03 05:53:49;;;;;;;1.77;1.30;;;11.30;99.90;;;;;;4998884;28;20267;-85
2022/09/03 05:56:17;;;;;;;1.48;1.33;;;11.80;99.90;;;;;;4998437;28;20264;-84
2022/09/03 05:58:48;;;;;;;1.15;1.15;;;11.60;99.90;;;;;;5015811;28;20177;-84
2022/09/03 06:01:19;;;;;;;1.60;1.35;;;12.50;99.90;;;;;;5015714;28;20174;-84
2022/09/03 06:03:47;;;;;;;2.55;1.63;;;12.40;99.90;;;;;;5016078;28;20181;-84
2022/09/03 06:06:14;;;;;;;0.75;0.75;;;12.30;99.90;;;;;;5018014;28;20266;-84
2022/09/03 06:08:41;;;;;;;1.08;0.90;;;12.40;99.90;;;;;;4998304;28;20661;-85
2022/09/03 06:11:07;;;;;;;1.52;1.20;;;12.70;99.90;;;;;;5026828;28;20663;-85
2022/09/03 06:13:34;;;;;;;1.27;1.08;;;12.30;99.90;;;;;;5035420;28;20172;-86
2022/09/03 06:16:05;;;;;;;1.63;1.23;;;12.40;99.90;;;;;;5017869;28;20271;-86
2022/09/03 06:18:31;;;;;;;2.55;1.35;;;;;;;;;;5033499;28;20176;-86
2022/09/03 06:21:05;;;;;;;1.48;1.38;;;13.10;99.90;;;;;;5025564;28;20265;-87
2022/09/03 06:23:32;;;;;;;3.88;1.15;;;13.20;99.90;;;;;;5018894;28;20191;-87
2022/09/03 06:26:06;;;;;;;1.92;1.25;;;13.60;99.90;;;;;;5015221;28;20247;-84
2022/09/03 06:28:35;;;;;;;4.63;1.55;;;13.20;99.90;;;;;;5015195;28;20173;-87
2022/09/03 06:31:02;;;;;;;2.03;1.52;;;13.40;99.90;;;;;;5015516;28;20228;-87
2022/09/03 06:33:32;;;;;;;1.60;1.42;;;14.00;99.90;;;;;;4998016;28;20204;-86
2022/09/03 06:35:58;;;;;;;1.98;1.48;;;14.10;99.90;;;;;;5015179;28;20242;-89
2022/09/03 06:38:26;;;;;;;3.78;1.60;;;13.80;99.90;;;;;;4997444;28;20181;-84
2022/09/03 06:40:56;;;;;;;3.17;1.55;;;14.10;99.90;;;;;;4998023;28;20189;-89
2022/09/03 06:43:23;;;;;;;3.65;2.08;;;;;;;;;;4981563;28;20192;-87
2022/09/03 06:45:59;;;;;;;2.03;1.27;;;14.20;99.90;;;;;;4997567;28;20232;-90
2022/09/03 06:48:27;;;;;;;4.38;1.42;;;14.10;99.90;;;;;;5014866;28;20218;-87
2022/09/03 06:50:58;;;;;;;1.77;0.98;;;14.10;99.90;;;;;;4997319;28;20673;-88
2022/09/03 06:53:25;;;;;;;2.78;1.35;;;14.10;99.90;;;;;;5014829;28;20197;-86
2022/09/03 06:55:59;;;;;;;8.40;1.52;;;14.50;99.90;;;;;;5015285;28;20192;-90
2022/09/03 06:58:29;;;;;;;2.50;1.63;;;14.50;99.90;;;;;;5014718;28;20177;-89
2022/09/03 07:01:10;;;;;;;4.13;2.78;;;14.40;99.90;;;;;;5014635;28;20185;-88
2022/09/03 07:03:37;;;;;;;3.00;2.03;;;14.80;99.90;;;;;;5014686;28;20173;-88
2022/09/03 07:06:05;;;;;;;4.75;2.22;;;14.80;99.90;;;;;;5015744;28;20213;-87
2022/09/03 07:08:32;;;;;;;2.90;2.28;;;14.60;99.90;;;;;;5015856;28;20178;-89
2022/09/03 07:11:12;;;;;;;5.35;2.55;;;14.90;99.90;;;;;;5006262;28;20165;-87
2022/09/03 07:13:40;;;;;;;3.17;2.10;;;14.90;99.90;;;;;;5039121;28;20212;-89
2022/09/03 07:16:08;;;;;;;3.10;1.75;;;15.30;99.90;;;;;;5026637;28;20193;-88
2022/09/03 07:18:34;;;;;;;4.63;2.50;;;15.40;99.90;;;;;;4999800;28;20188;-87
2022/09/03 07:21:01;;;;;;;3.33;1.80;;;15.60;99.90;;;;;;5013419;28;20173;-88
2022/09/03 07:23:28;;;;;;;2.65;1.80;;;15.40;99.90;;;;;;5012813;28;20321;-87
2022/09/03 07:25:59;;;;;;;4.28;2.20;;;16.10;99.90;;;;;;5013792;28;20720;-87
2022/09/03 07:28:27;;;;;;;1.20;1.10;;;16.00;99.90;;;;;;4996640;28;20177;-88
2022/09/03 07:30:54;;;;;;;1.60;1.33;;;15.90;99.90;;;;;;5013886;28;20318;-87
2022/09/03 07:33:20;;;;;;;5.55;2.08;;;16.10;99.90;;;;;;5032712;28;20188;-87
2022/09/03 07:35:46;;;;;;;1.42;1.30;;;16.20;99.90;;;;;;5033673;28;20263;-87
2022/09/03 07:38:18;;;;;;;1.75;1.45;;;16.20;99.90;;;;;;5015997;28;20649;-86
2022/09/03 07:40:45;;;;;;;3.58;2.05;;;16.00;99.90;;;;;;5033680;28;20648;-87
2022/09/03 07:43:11;;;;;;;2.53;1.17;;;17.10;99.90;;;;;;5033549;28;20182;-87
2022/09/03 07:45:38;;;;;;;1.13;1.02;;;;;;;;;;5011819;28;20759;-87
2022/09/03 07:48:03;;;;;;;2.67;1.15;;;16.80;99.90;;;;;;5016028;28;20185;-88
2022/09/03 07:50:36;;;;;;;1.42;1.08;;;;;;;;;;5017277;28;20184;-87
2022/09/03 07:53:02;;;;;;;1.38;0.75;;;17.30;99.90;;;;;;5019842;28;20184;-86
2022/09/03 07:55:28;;;;;;;0.90;0.77;;;;;;;;;;4996033;28;20235;-86
2022/09/03 07:57:58;;;;;;;1.65;1.00;;;17.10;99.90;;;;;;4979709;28;20689;-87
2022/09/03 08:00:24;;;;;;;1.25;0.85;;;17.80;99.90;;;;;;5013433;28;20247;-87
2022/09/03 08:02:51;;;;;;;1.60;0.90;;;17.50;99.90;;;;;;5013349;28;20188;-87
2022/09/03 08:05:20;;;;;;;0.85;0.85;;;17.40;98.80;;;;;;4996048;28;20204;-87
2022/09/03 08:07:46;;;;;;;3.50;1.30;;;18.00;99.90;;;;;;5013537;28;20177;-84
2022/09/03 08:10:12;;;;;;;1.38;1.05;;;17.70;99.90;;;;;;5018551;28;20691;-87
2022/09/03 08:12:38;;;;;;;1.40;1.20;;;17.90;99.90;;;;;;5005176;28;20189;-86
2022/09/03 08:15:04;;;;;;;0.93;0.82;;;17.70;99.90;;;;;;4988058;28;20184;-85
2022/09/03 08:17:30;;;;;;;1.00;0.95;;;;;;;;;;5023711;28;20215;-85
2022/09/03 08:19:57;;;;;;;1.55;1.02;;;;;;;;;;5021523;28;20637;-86
2022/09/03 08:22:24;;;;;;;0.80;0.75;;;17.90;99.90;;;;;;4997029;28;20188;-85
2022/09/03 08:24:50;;;;;;;1.95;0.90;;;18.40;99.90;;;;;;5031713;28;20192;-85
2022/09/03 08:27:24;;;;;;;0.82;0.70;;;;;;;;;;5015052;28;20266;-85
2022/09/03 08:29:49;;;;;;;0.90;0.73;;;18.10;99.90;;;;;;5015046;28;20243;-86
2022/09/03 08:32:15;;;;;;;1.90;1.08;;;;;;;;;;5033757;28;20658;-88
2022/09/03 08:34:41;;;;;;;1.80;1.50;;;;;;;;;;5016619;28;20268;-90
2022/09/03 08:37:08;;;;;;;2.15;1.10;;;18.00;99.90;;;;;;5033971;28;20199;-88
2022/09/03 08:39:34;;;;;;;3.05;1.25;;;;;;;;;;5025040;28;20215;-89
2022/09/03 08:42:18;;;;;;;1.17;0.77;;;19.00;98.60;;;;;;5023496;28;20649;-88
2022/09/03 08:44:55;;;;;;;0.80;0.80;;;18.80;86.90;;;;;;5009634;28;20183;-86
2022/09/03 08:47:38;;;;;;;0.60;0.60;;;18.60;92.10;;;;;;5033464;28;20306;-89
2022/09/03 08:50:03;;;;;;;2.90;0.93;;;18.90;96.80;;;;;;5034599;28;20176;-91
2022/09/03 08:52:45;;;;;;;1.40;1.23;;;18.80;78.80;;;;;;5018175;28;20263;-89
2022/09/03 08:55:17;;;;;;;1.60;1.10;;;18.80;95.30;;;;;;5016794;28;20283;-88
2022/09/03 08:57:46;;;;;;;1.40;0.93;;;19.00;77.80;;;;;;5034515;28;20169;-87
2022/09/03 09:00:12;;;;;;;1.85;1.20;;;19.20;77.20;;;;;;5035279;28;20512;-89
2022/09/03 09:03:01;;;;;;;2.60;1.08;;;18.90;93.70;;;;;;5015997;28;20263;-86
2022/09/03 09:05:46;;;;;;;7.35;1.73;;;19.20;72.70;;;;;;5024556;28;20247;-86
2022/09/03 09:08:23;;;;;;;1.20;0.85;;;19.30;94.30;;;;;;5032978;28;20183;-85
2022/09/03 09:11:00;;;;;;;2.30;0.95;;;19.50;73.10;;;;;;5033269;28;20259;-86
2022/09/03 09:13:59;;;;;;;2.35;1.75;;;19.10;92.50;;;;;;5045704;28;20251;-88
2022/09/03 09:16:43;;;;;;;3.38;2.03;;;19.10;91.90;;;;;;5026879;28;20234;-86
2022/09/03 09:19:38;;;;;;;1.30;1.10;;;19.30;92.10;;;;;;5042996;28;20157;-87
2022/09/03 09:22:10;;;;;;;3.85;1.67;;;19.70;70.30;;;;;;5026885;28;20275;-86
2022/09/03 09:24:45;;;;;;;5.95;1.98;;;19.60;81.40;;;;;;5043344;28;20169;-87
2022/09/03 09:27:16;;;;;;;5.88;2.45;;;20.00;68.70;;;;;;5048442;28;20222;-86
2022/09/03 10:38:36;;;;;;;5.80;1.80;;;;;;;;;;4842408;29;20235;-86
2022/09/03 10:41:02;;;;;;;2.00;1.55;;;;;;;;;;4843169;29;20571;-87
2022/09/03 10:44:01;;;;;;;4.13;1.80;;;22.10;59.50;;;;;;4843752;29;20621;-88
2022/09/03 10:46:35;;;;;;;3.78;1.92;;;22.10;59.10;;;;;;4844185;29;20606;-86
2022/09/03 10:49:23;;;;;;;5.55;2.30;;;21.70;81.80;;;;;;4844776;29;20188;-87
2022/09/03 10:52:15;;;;;;;3.28;2.10;;;22.70;70.40;;;;;;4842817;29;20195;-87
2022/09/03 10:54:41;;;;;;;3.70;2.35;;;;;;;;;;4843921;29;20183;-88
2022/09/03 10:57:22;;;;;;;2.58;1.88;;;22.70;84.60;;;;;;4842768;29;20201;-88
2022/09/03 11:00:09;;;;;;;2.85;1.88;;;22.40;67.50;;;;;;4843878;29;20175;-88
2022/09/03 11:03:03;;;;;;;5.85;2.15;;;22.60;81.90;;;;;;4843733;29;20207;-87
2022/09/03 11:05:38;;;;;;;4.25;2.80;;;22.30;81.60;;;;;;4799917;29;20223;-88
2022/09/03 11:08:15;;;;;;;2.85;1.98;;;23.00;83.90;;;;;;4844917;29;20194;-88
2022/09/03 11:10:48;;;;;;;5.90;2.33;;;22.80;56.20;;;;;;4844239;29;20657;-86
2022/09/03 11:13:26;;;;;;;4.10;2.10;;;22.90;80.30;;;;;;4846656;29;20198;-88
2022/09/03 11:15:58;;;;;;;3.25;1.85;;;22.60;57.00;;;;;;4843741;29;20278;-88
2022/09/03 11:18:37;;;;;;;4.03;2.30;;;22.60;57.10;;;;;;4843597;29;20629;-88
2022/09/03 11:21:06;;;;;;;5.00;2.67;;;22.50;57.20;;;;;;4843999;29;20636;-89
2022/09/03 11:23:36;;;;;;;5.47;2.80;;;22.50;57.00;;;;;;4843872;29;20183;-85
2022/09/03 11:26:07;;;;;;;4.70;3.03;;;22.50;58.40;;;;;;4843813;29;20664;-86
2022/09/03 11:28:55;;;;;;;4.43;2.67;;;23.30;81.20;;;;;;4843984;29;20211;-86
2022/09/03 11:31:31;;;;;;;3.90;2.67;;;;;;;;;;4842255;29;20186;-87
2022/09/03 11:34:27;;;;;;;5.63;1.77;;;22.10;72.40;;;;;;4843201;29;20179;-87
2022/09/03 11:37:18;;;;;;;3.22;2.15;;;21.90;81.10;;;;;;4829464;29;20697;-86
2022/09/03 11:39:52;;;;;;;3.80;1.95;;;22.00;57.90;;;;;;4841375;29;20194;-87
2022/09/03 11:42:33;;;;;;;4.25;2.63;;;22.40;83.20;;;;;;4843106;29;20182;-88
2022/09/03 11:45:26;;;;;;;2.97;2.13;;;22.40;81.00;;;;;;4843667;29;20270;-86
2022/09/03 11:47:53;;;;;;;5.55;2.47;;;22.00;58.10;;;;;;4843584;29;20202;-86
2022/09/03 11:50:30;;;;;;;6.60;2.50;;;22.20;82.60;;;;;;4824339;29;20632;-88
2022/09/03 11:53:15;;;;;;;4.13;2.13;;;21.70;75.10;;;;;;4841120;29;20199;-87
2022/09/03 11:55:54;;;;;;;2.63;1.80;;;21.70;66.40;;;;;;4841246;29;20239;-86
2022/09/03 11:58:29;;;;;;;4.28;2.72;;;22.50;83.30;;;;;;4842929;29;20217;-87
2022/09/03 12:00:57;;;;;;;3.50;2.00;;;21.90;58.70;;;;;;4841669;29;20789;-87
2022/09/03 12:03:28;;;;;;;2.85;1.77;;;21.70;59.60;;;;;;4842668;29;20219;-86
2022/09/03 12:06:00;;;;;;;3.35;2.03;;;22.00;83.90;;;;;;4842809;29;20219;-88
2022/09/03 12:09:12;;;;;;;2.97;1.80;;;21.60;82.50;;;;;;4842945;29;20187;-86
2022/09/03 12:12:14;;;;;;;5.88;2.03;;;22.30;82.50;;;;;;4807713;29;20198;-87
2022/09/03 12:14:57;;;;;;;5.45;2.60;;;22.30;59.60;;;;;;4841457;29;20190;-88
2022/09/03 12:17:34;;;;;;;2.03;1.40;;;22.30;59.60;;;;;;4844629;29;20195;-89
2022/09/03 12:20:00;;;;;;;2.72;1.50;;;;;;;;;;4846158;29;20171;-89
2022/09/03 12:22:28;;;;;;;2.20;1.50;;;22.40;59.10;;;;;;4842440;29;20183;-89
2022/09/03 12:24:55;;;;;;;2.25;1.60;;;;;;;;;;4841478;29;20191;-89
2022/09/03 12:27:26;;;;;;;2.17;1.65;;;22.60;59.60;;;;;;4843393;29;20287;-89
2022/09/03 12:29:57;;;;;;;3.05;1.77;;;;;;;;;;4842112;29;20286;-89
2022/09/03 12:32:23;;;;;;;4.60;1.15;;;;;;;;;;4842927;29;20179;-88
2022/09/03 12:34:49;;;;;;;3.58;1.60;;;;;;;;;;4842900;29;20671;-89
2022/09/03 12:37:26;;;;;;;2.60;1.27;;;22.10;59.40;;;;;;4826019;29;20709;-88
2022/09/03 12:39:55;;;;;;;3.00;1.73;;;22.40;58.80;;;;;;4842302;29;20183;-88
2022/09/03 12:42:27;;;;;;;3.45;1.85;;;22.30;82.20;;;;;;4842192;29;20216;-89
2022/09/03 12:44:53;;;;;;;4.05;1.58;;;;;;;;;;4842427;29;20176;-88
2022/09/03 12:47:23;;;;;;;2.13;1.30;;;22.80;58.10;;;;;;4841158;29;20218;-88
2022/09/03 12:49:51;;;;;;;2.10;1.45;;;22.60;57.30;;;;;;4841698;29;20271;-87
2022/09/03 12:52:26;;;;;;;5.05;1.08;;;22.80;57.60;;;;;;4843604;29;20220;-88
2022/09/03 12:54:52;;;;;;;2.45;1.35;;;22.90;80.50;;;;;;4845535;29;20274;-89
2022/09/03 12:57:26;;;;;;;2.03;1.05;;;23.00;57.60;;;;;;4845302;29;20609;-87
2022/09/03 12:59:55;;;;;;;2.85;1.60;;;22.60;57.60;;;;;;4840454;29;20232;-88
2022/09/03 13:02:31;;;;;;;1.05;0.95;;;22.50;58.50;;;;;;4842299;29;20183;-88
2022/09/03 13:04:58;;;;;;;2.88;1.30;;;;;;;;;;4841654;29;20648;-89
2022/09/03 13:07:37;;;;;;;1.63;1.23;;;22.40;81.80;;;;;;4842865;29;20230;-88
2022/09/03 13:10:15;;;;;;;1.10;0.88;;;22.80;58.40;;;;;;4845209;29;20190;-86
2022/09/03 13:12:49;;;;;;;1.85;1.45;;;23.00;58.80;;;;;;4845683;29;20214;-88
2022/09/03 13:15:23;;;;;;;1.95;1.38;;;23.10;58.10;;;;;;4844850;29;20183;-87
2022/09/03 13:18:05;;;;;;;2.17;1.52;;;23.70;73.70;;;;;;4843247;29;20274;-86
2022/09/03 13:20:42;;;;;;;3.65;1.30;;;23.40;59.20;;;;;;4845654;29;20175;-87
2022/09/03 13:23:46;;;;;;;2.25;1.40;;;23.00;59.00;;;;;;4844664;29;20652;-87
2022/09/03 13:26:20;;;;;;;2.03;1.40;;;22.40;78.20;;;;;;4813852;29;20310;-89
2022/09/03 13:29:10;;;;;;;1.00;0.90;;;22.00;84.50;;;;;;4844129;29;20281;-86
2022/09/03 13:32:03;;;;;;;1.92;1.23;;;22.00;74.00;;;;;;4846526;29;20191;-87
2022/09/03 13:34:55;;;;;;;1.15;0.90;;;21.50;70.70;;;;;;4845683;29;20183;-88
2022/09/03 13:37:43;;;;;;;3.10;1.63;;;20.70;63.30;;;;;;4845323;29;20311;-89
2022/09/03 13:40:23;;;;;;;1.50;0.90;;;20.60;88.30;;;;;;4846587;29;20180;-90
2022/09/03 13:43:12;;;;;;;1.77;0.93;;;20.70;65.50;;;;;;4848138;29;20183;-87
2022/09/03 13:45:43;;;;;;;1.10;0.98;;;20.60;66.40;;;;;;4845574;29;20787;-89
2022/09/03 13:51:13;;;;;;;3.90;1.20;;;20.90;69.50;;;;;;4866461;29;20292;-87
2022/09/03 13:54:11;;;;;;;1.20;1.05;;;21.10;89.30;;;;;;4861090;29;20194;-88
2022/09/03 13:56:48;;;;;;;2.67;1.42;;;21.30;92.10;;;;;;4844293;29;20191;-87
2022/09/03 13:59:32;;;;;;;3.95;1.10;;;21.90;71.10;;;;;;4842551;29;20198;-87
2022/09/03 14:02:19;;;;;;;2.95;1.70;;;21.90;92.50;;;;;;4842478;29;20210;-88
2022/09/03 14:05:09;;;;;;;2.03;1.58;;;21.40;80.10;;;;;;4842100;29;20613;-87
2022/09/03 14:08:07;;;;;;;2.63;1.83;;;21.10;94.00;;;;;;4842814;29;20234;-91
2022/09/03 14:10:51;;;;;;;10.77;1.40;;;20.50;81.70;;;;;;4844533;29;20199;-88
2022/09/03 14:13:17;;;;;;;4.88;1.40;;;;;;;;;;4844453;29;20185;-85
2022/09/03 14:15:50;;;;;;;3.00;1.35;;;20.60;78.50;;;;;;4840632;29;20195;-86
2022/09/03 14:18:34;;;;;;;2.88;1.33;;;19.90;91.40;;;;;;4839963;29;20230;-87
2022/09/03 14:21:10;;;;;;;3.63;1.25;;;20.20;80.80;;;;;;4841215;29;20183;-86
2022/09/03 14:23:53;;;;;;;2.10;1.52;;;20.10;82.90;;;;;;4844133;29;20727;-86
2022/09/03 14:26:29;;;;;;;2.75;1.65;;;20.00;98.00;;;;;;4843117;29;20689;-85
2022/09/03 14:29:19;;;;;;;3.28;1.13;;;21.40;85.30;;;;;;4841062;29;20193;-87
2022/09/03 14:31:51;;;;;;;2.58;1.25;;;20.30;82.70;;;;;;4837436;29;20219;-86
2022/09/03 14:34:44;;;;;;;2.38;1.52;;;19.90;97.10;;;;;;4842708;29;20187;-89
2022/09/03 14:37:33;;;;;;;2.10;1.23;;;20.50;85.20;;;;;;4843456;29;20234;-87
2022/09/03 14:40:07;;;;;;;1.13;0.98;;;21.20;89.70;;;;;;4840131;29;20191;-87
2022/09/03 14:42:43;;;;;;;2.50;1.20;;;20.70;80.80;;;;;;4842864;29;20243;-89
2022/09/03 14:45:18;;;;;;;3.13;1.75;;;20.70;96.70;;;;;;4844155;29;20186;-87
2022/09/03 14:55:54;;;;;;;4.38;2.00;;;20.30;97.10;;;;;;5696471;23;20244;-87
2022/09/03 14:58:32;;;;;;;2.53;1.30;;;20.50;82.40;;;;;;4880139;29;20185;-87